Aérodrome :
LOGIN :

S'inscrire | Disclaimer

   EN    FR    IT 

 










Légende :    VFR   VFR Marginal   IFR   IFR Intensif   IFR Très Intensif
Visi : 
Plafond : 
>= 8 km
>= 3000ft
5 à 8 km
1000 à 3000 ft
1500m à 5 km
500 à 1000 ft
800 à 1500m
200 à 500 ft
< 800m
< 200 ft
Symboles :   Orages  Brouillard  Fortes neiges  Fortes précipitations  Vent > 20 kt
SIGMETs :   Divers  Orages  Givrage  Turbulence  Onde Orograph.  Cendres Volcan.






- Altitude de l'aérodrome : 39 ft
- Code IATA : ANR


EBAW - Anvers / Antwerpen Deurne

DERNIER METAR :
  • 090950Z 20008KT 9999 FEW008 SCT010 BKN012 04/02 Q1003 TEMPO BKN008

METARs EXPIRÉS :
  • 090920Z 19007KT 9999 -RA FEW008 SCT010 BKN012 04/02 Q1003 TEMPO BKN008
  • 090850Z 19008KT 9999 -RA FEW008 SCT010 BKN012 04/02 Q1003 TEMPO BKN008
  • 090820Z 20008KT 9999 FEW010 BKN012 OVC020 04/01 Q1003 TEMPO BKN008
  • 090750Z 20008KT 9999 SCT012 BKN032 03/01 Q1003 BECMG BKN012 OVC017
  • 090720Z 19006KT 9999 SCT012 BKN027 03/01 Q1003 BECMG BKN012

TAF TAF EBAW
Valide du 09 à 09h jusqu'au 09 à 18h UTC


090801Z 0909/0918 20006KT 8000 SCT008 BKN011
TEMPO 0909/0913 BKN008
PROB30 0909/0912 3500 BR



MET'MAP, la Météo Aéronautique d'un coup d'oeil ! - Copyright ORBIFLY Décembre 2007 - Disclaimer

ORBIFLY MET'MAP TEAM :

Programmation & Développement : Alexandra Zaïnal
Sur une idée originale de : Baudouin d'Aumeries
Assistance à la programmation : Marc-Olivier Méhu
Soutien technique & logistique : Manuel Goepfert

Contact : metmap@orbifly.com




SOURCES & CREDITS :

   NOAA